Latest Coastal Weather Observations for Kingscote

IDS60701

Issued at 3:51 pm CDT Monday 6 December 2021 (issued every 10 minutes, with the page automatically refreshed every 10 minutes)

About coastal observations | Map of coastal stations | Coastal observations for SA | Marine services | Other Formats
Station Details ID: 022841 Name: KINGSCOTE AERO Lat: -35.71 Lon: 137.52 Height: 6.23 m
Data from the previous 72 hours. | See also: Recent months at Kingscote
Date/Time
CDT
Wind Sea
Height
m
Swell Vis
km
Cloud Weather Temp
°C
Press
MSL
hPa
Rain since
9am
mm
Dir  Spd
kts
Gust
kts
Height
m
Period
s
Dir
06/03:30pm SSW 14 17 - - - - 10 Partly cloudy - 21.5 1012.1 0.0
06/03:00pm S 13 18 - - - - 10 Mostly cloudy - 22.7 1012.0 0.0
06/02:30pm S 12 17 - - - - 10 Partly cloudy - 23.9 1012.2 0.0
06/02:00pm SSE 12 16 - - - - 10 Partly cloudy - 23.6 1012.2 0.0
06/01:30pm S 9 17 - - - - 10 - - 23.5 1012.2 0.0
06/01:00pm SSW 8 13 - - - - 10 - - 23.3 1012.2 0.0
06/12:30pm SSW 9 15 - - - - 10 - - 23.0 1012.5 0.0
06/12:00pm SSW 13 21 - - - - 10 - - 22.9 1012.7 0.0
06/11:30am W 7 13 - - - - 10 - - 23.2 1012.8 0.0
06/11:00am W 5 9 - - - - 10 - - 21.3 1012.6 0.0
06/10:30am SSW 7 11 - - - - 10 - - 20.9 1013.2 0.0
06/10:00am SSW 9 13 - - - - 10 - - 19.7 1013.4 0.0
06/09:30am SSE 5 9 - - - - 10 - - 18.6 1013.3 0.0
06/09:00am S 5 8 - - - - 10 - - 17.6 1013.4 0.0
06/08:30am S 7 9 - - - - 10 - - 16.3 1013.4 0.0
06/08:00am SSW 6 8 - - - - 10 - - 14.8 1013.4 0.0
06/07:30am SW 4 5 - - - - 10 - - 11.4 1013.3 0.0
06/07:00am WSW 4 4 - - - - 10 - - 9.5 1013.1 0.0
06/06:30am WSW 4 5 - - - - 10 - - 7.0 1013.2 0.0
06/06:20am WSW 4 5 - - - - 10 - - 6.7 1013.2 0.0
06/06:00am SW 5 6 - - - - 4 - - 6.6 1013.3 0.0
06/05:30am CALM 0 0 - - - - 10 - - 7.6 1013.1 0.0
06/05:00am SW 3 3 - - - - 10 - - 8.0 1013.1 0.0
06/04:30am SSW 5 5 - - - - 10 - - 7.5 1013.4 0.0
06/04:00am SW 4 5 - - - - 10 - - 7.6 1013.6 0.0
06/03:30am SW 6 6 - - - - 10 - - 8.0 1013.9 0.0
06/03:00am SW 5 6 - - - - 10 - - 8.2 1014.0 0.0
06/02:30am SSW 6 7 - - - - 10 - - 8.7 1014.1 0.0
06/02:00am SSW 6 6 - - - - 10 - - 8.8 1014.5 0.0
06/01:30am SSW 5 6 - - - - 10 - - 8.8 1014.7 0.0
06/01:00am SSW 6 6 - - - - 10 - - 9.2 1015.1 0.0
06/12:30am SW 8 9 - - - - 10 - - 8.3 1015.4 0.0
06/12:00am SW 4 5 - - - - 10 - - 9.3 1015.7 0.0
 
Date/Time
CDT
Wind Sea
Height
m
Swell Vis
km
Cloud Weather Temp
°C
Press
MSL
hPa
Rain since
9am
mm
Dir  Spd
kts
Gust
kts
Height
m
Period
s
Dir
05/11:30pm SSW 4 4 - - - - 10 - - 9.7 1015.8 0.0
05/11:00pm SSW 5 6 - - - - 10 - - 10.3 1016.1 0.0
05/10:30pm SSE 5 6 - - - - 10 - - 12.0 1016.3 0.0
05/10:00pm SSE 5 6 - - - - 10 - - 12.6 1016.4 0.0
05/09:30pm SSE 6 8 - - - - 10 - - 13.2 1016.4 0.0
05/09:00pm SE 7 10 - - - - 10 Partly cloudy - 13.7 1016.4 0.0
05/08:30pm SE 10 13 - - - - 10 - - 14.4 1016.6 0.0
05/08:00pm SE 8 12 - - - - 10 - - 14.6 1016.6 0.0
05/07:30pm SE 13 17 - - - - 10 - - 15.2 1016.6 0.0
05/07:00pm SSE 12 17 - - - - 10 - - 15.7 1016.5 0.0
05/06:30pm SE 13 17 - - - - 10 - - 15.8 1016.5 0.0
05/06:00pm SE 14 18 - - - - 10 Mostly clear - 16.9 1016.6 0.0
05/05:30pm SSE 15 19 - - - - 10 - - 18.1 1016.6 0.0
05/05:00pm SE 14 19 - - - - 10 - - 18.8 1016.7 0.0
05/04:30pm ESE 11 16 - - - - 10 - - 19.9 1016.8 0.0
05/04:00pm ESE 12 18 - - - - 10 - - 20.2 1017.2 0.0
05/03:30pm ESE 11 17 - - - - 10 - - 21.5 1017.7 0.0
05/03:00pm E 12 16 - - - - 10 Mostly clear - 20.6 1018.1 0.0
05/02:30pm E 12 17 - - - - 10 Partly cloudy - 19.9 1018.5 0.0
05/02:00pm E 10 18 - - - - 10 Partly cloudy - 19.8 1019.0 0.0
05/01:30pm SE 9 16 - - - - 10 Partly cloudy - 20.6 1019.1 0.0
05/01:00pm ESE 8 16 - - - - 10 Partly cloudy - 19.6 1019.4 0.0
05/12:30pm ENE 9 16 - - - - 10 - - 20.0 1019.3 0.0
05/12:00pm E 9 15 - - - - 10 - - 20.4 1019.6 0.0
05/11:30am E 10 15 - - - - 10 Partly cloudy - 20.3 1019.8 0.0
05/11:00am E 10 16 - - - - 10 - - 19.7 1020.1 0.0
05/10:30am ENE 10 14 - - - - 10 Cloudy - 19.8 1020.6 0.0
05/10:00am ENE 9 15 - - - - 10 Cloudy - 17.8 1020.8 0.0
05/09:30am E 10 15 - - - - 10 Cloudy - 17.4 1021.4 0.0
05/09:00am ESE 9 14 - - - - 10 Mostly cloudy - 17.7 1021.5 0.0
05/08:30am ESE 8 12 - - - - 10 Cloudy - 17.0 1021.4 0.0
05/08:00am ESE 10 13 - - - - 10 Cloudy - 16.3 1021.1 0.0
05/07:30am SE 10 13 - - - - 10 Partly cloudy - 15.9 1021.1 0.0
05/07:00am ESE 8 11 - - - - 10 Cloudy - 15.5 1021.3 0.0
05/06:30am SE 9 13 - - - - 10 Cloudy - 15.1 1021.0 0.0
05/06:00am SE 9 12 - - - - 10 Mostly cloudy - 14.5 1020.9 0.0
05/05:30am SE 8 11 - - - - 10 Partly cloudy - 14.7 1021.1 0.0
05/05:00am ESE 7 8 - - - - 10 Cloudy - 14.8 1020.7 0.0
05/04:30am SE 6 7 - - - - 10 Cloudy - 14.6 1020.7 0.0
05/04:00am SSE 7 11 - - - - 10 Cloudy - 14.7 1020.7 0.0
05/03:30am SE 9 14 - - - - 10 Cloudy - 14.8 1020.8 0.0
05/03:00am SSE 7 11 - - - - 10 Cloudy - 14.8 1020.8 0.0
05/02:30am SE 10 13 - - - - 10 Cloudy - 14.8 1020.9 0.0
05/02:00am SSE 9 12 - - - - 10 Cloudy - 14.7 1021.2 0.0
05/01:30am SSE 8 11 - - - - 10 Cloudy - 14.6 1021.6 0.0
05/01:00am S 7 10 - - - - 10 Cloudy - 14.3 1022.3 0.0
05/12:30am SSE 6 7 - - - - 10 Cloudy - 13.8 1022.5 0.0
05/12:00am S 6 7 - - - - 10 Cloudy - 13.8 1022.9 0.0
 
Date/Time
CDT
Wind Sea
Height
m
Swell Vis
km
Cloud Weather Temp
°C
Press
MSL
hPa
Rain since
9am
mm
Dir  Spd
kts
Gust
kts
Height
m
Period
s
Dir
04/11:30pm S 6 8 - - - - 10 Partly cloudy - 13.0 1023.1 0.0
04/11:00pm S 6 6 - - - - 10 Partly cloudy - 11.7 1023.0 0.0
04/10:30pm SSW 6 7 - - - - 10 Partly cloudy - 12.5 1023.1 0.0
04/10:00pm S 6 6 - - - - 10 - - 11.4 1023.0 0.0
04/09:30pm SSE 5 6 - - - - 10 - - 12.2 1022.7 0.0
04/09:00pm SSE 6 8 - - - - 10 - - 13.5 1022.8 0.0
04/08:30pm SE 10 13 - - - - 10 - - 14.6 1022.6 0.0
04/08:00pm SE 12 16 - - - - 10 Partly cloudy - 15.4 1022.4 0.0
04/07:30pm SSE 12 17 - - - - 10 - - 16.6 1022.4 0.0
04/07:00pm S 12 16 - - - - 10 Partly cloudy - 17.6 1022.2 0.0
04/06:30pm SSE 12 17 - - - - 10 Partly cloudy - 17.4 1022.1 0.0
04/06:00pm SSE 13 18 - - - - 10 Mostly clear - 19.0 1021.6 0.0
04/05:30pm SSE 11 19 - - - - 10 Partly cloudy - 19.3 1021.6 0.0
04/05:00pm SSE 12 17 - - - - 10 Partly cloudy - 19.9 1021.6 0.0
04/04:30pm SE 13 19 - - - - 10 Partly cloudy - 19.4 1021.9 0.0
04/04:00pm SE 13 18 - - - - 10 Cloudy - 19.6 1022.5 0.0
04/03:30pm SSE 11 16 - - - - 10 Partly cloudy - 19.3 1022.9 0.0
04/03:00pm SE 12 17 - - - - 10 Cloudy - 18.6 1023.0 0.0
04/02:30pm SSE 9 13 - - - - 10 Cloudy - 18.2 1023.1 0.0
04/02:00pm SSW 9 14 - - - - 10 Cloudy - 19.5 1023.3 0.0
04/01:30pm SSW 9 13 - - - - 10 Partly cloudy - 19.2 1023.6 0.0
04/01:00pm SSW 7 11 - - - - 10 Partly cloudy - 18.8 1024.0 0.0
04/12:30pm S 8 13 - - - - 10 Cloudy - 18.2 1024.1 0.0
04/12:00pm S 11 15 - - - - 10 Cloudy - 18.9 1024.1 0.0
04/11:30am S 10 16 - - - - 10 Cloudy - 18.8 1023.9 0.0
04/11:00am SSE 9 13 - - - - 10 Cloudy - 18.5 1023.7 0.0
04/10:30am S 10 14 - - - - 10 Partly cloudy - 17.2 1023.9 0.0
04/10:00am S 12 16 - - - - 10 Cloudy - 16.5 1023.9 0.0
04/09:30am SSW 12 17 - - - - 10 Cloudy - 17.0 1023.9 0.0
04/09:00am SSW 9 12 - - - - 10 Cloudy - 17.5 1023.8 0.0
04/08:30am SSW 4 7 - - - - 10 Cloudy - 15.3 1023.9 0.0
04/08:00am S 5 7 - - - - 10 Partly cloudy - 14.8 1023.5 0.0
04/07:30am W 5 6 - - - - 10 Partly cloudy - 11.8 1023.3 0.0
04/07:00am WNW 3 4 - - - - 10 Partly cloudy - 9.8 1023.1 0.0
04/06:30am WNW 4 5 - - - - 10 - - 9.1 1022.7 0.0
04/06:00am WNW 5 6 - - - - 10 Cloudy - 9.6 1022.5 0.0
04/05:30am NW 2 5 - - - - 10 Cloudy - 8.7 1022.1 0.0
04/05:00am CALM 0 3 - - - - 10 Partly cloudy - 7.6 1021.9 0.0
04/04:30am W 3 5 - - - - 10 - - 7.3 1021.8 0.0
04/04:00am W 4 5 - - - - 10 Partly cloudy - 7.8 1021.8 0.0
04/03:30am W 4 5 - - - - 10 Partly cloudy - 7.1 1021.8 0.0
04/03:00am WSW 4 5 - - - - 10 Mostly cloudy - 6.2 1021.7 0.0
04/02:30am WSW 4 5 - - - - 10 Partly cloudy - 5.9 1021.9 0.0
04/02:00am WSW 4 4 - - - - 10 Partly cloudy - 6.3 1022.1 0.0
04/01:30am WSW 5 6 - - - - 10 - - 6.3 1022.3 0.0
04/01:00am SW 5 5 - - - - 10 - - 6.8 1022.4 0.0
04/12:30am SSW 5 6 - - - - 10 - - 7.0 1022.5 0.0
04/12:00am SW 4 5 - - - - 10 - - 8.1 1022.8 0.0
 
Date/Time
CDT
Wind Sea
Height
m
Swell Vis
km
Cloud Weather Temp
°C
Press
MSL
hPa
Rain since
9am
mm
Dir  Spd
kts
Gust
kts
Height
m
Period
s
Dir
03/11:30pm S 5 6 - - - - 10 Partly cloudy - 9.6 1022.8 0.0
03/11:00pm SSW 4 5 - - - - 10 - - 10.3 1022.9 0.0
03/10:30pm S 7 8 - - - - 10 Partly cloudy - 10.7 1022.9 0.0
03/10:00pm S 5 6 - - - - 10 - - 11.1 1022.7 0.0
03/09:30pm S 10 12 - - - - 10 - - 12.5 1022.4 0.0
03/09:00pm S 8 11 - - - - 10 - - 12.7 1022.4 0.0
03/08:30pm S 9 11 - - - - 10 - - 13.5 1022.1 0.0
03/08:00pm SSW 12 16 - - - - 10 - - 14.7 1022.2 0.0
03/07:30pm SSW 14 17 - - - - 10 - - 15.8 1021.9 0.0
03/07:00pm SSW 13 17 - - - - 10 - - 17.0 1021.7 0.0
03/06:30pm SSW 14 19 - - - - 10 - - 17.8 1021.5 0.0
03/06:00pm SSW 15 18 - - - - 10 - - 18.3 1021.1 0.0
03/05:30pm S 14 17 - - - - 10 - - 19.0 1020.8 0.0
03/05:00pm SSW 15 23 - - - - 10 - - 18.8 1020.7 0.0
03/04:30pm SSW 17 22 - - - - 10 - - 19.8 1020.4 0.0
03/04:00pm S 17 22 - - - - 10 - - 19.4 1020.5 0.0

Other formats

Comma delimited format used in spreadsheet applications
http://www.bom.gov.au/fwo/IDS60701/IDS60701.95807.axf

JavaScript Object Notation format (JSON) in row-major order
http://www.bom.gov.au/fwo/IDS60701/IDS60701.95807.json

Data quality

Most of these data are generated automatically and are frequently updated. Quality checks on data are not normally performed. It is possible for incorrect values to appear. Refer to information at About Latest Weather Observations and please check the disclaimer before using these data.